createdAt,value
2023-09-14T00:00:33.260Z,12.8
2023-09-14T00:10:35.600Z,12.7
2023-09-14T00:20:37.412Z,12.7
2023-09-14T00:30:39.228Z,12.6
2023-09-14T00:40:41.397Z,12.5
2023-09-14T00:50:43.087Z,12.4
2023-09-14T01:00:45.392Z,12.3
2023-09-14T01:20:56.257Z,12.1
2023-09-14T01:30:58.601Z,11.9
2023-09-14T01:41:01.026Z,11.9
2023-09-14T01:51:03.410Z,11.8
2023-09-14T02:01:05.307Z,11.7
2023-09-14T02:11:07.003Z,11.9
2023-09-14T02:21:09.260Z,11.9
2023-09-14T02:31:11.673Z,11.9
2023-09-14T02:41:13.657Z,12
2023-09-14T02:51:15.594Z,12
2023-09-14T03:01:17.936Z,12.1
2023-09-14T03:11:19.902Z,12.1
2023-09-14T03:21:21.838Z,12.1
2023-09-14T03:31:24.378Z,12.2
2023-09-14T03:41:26.612Z,12.3
2023-09-14T03:51:29.215Z,12.3
2023-09-14T04:01:31.074Z,12.4
2023-09-14T05:31:51.708Z,12.4
2023-09-14T05:41:54.124Z,12.6
2023-09-14T05:51:55.864Z,12.8
2023-09-14T06:01:57.431Z,12.9
2023-09-14T06:42:06.486Z,14.2
2023-09-14T06:52:08.625Z,14.6
2023-09-14T07:02:10.338Z,14.5
2023-09-14T07:22:14.547Z,14.7
2023-09-14T07:32:16.674Z,15.2
2023-09-14T07:42:18.651Z,15.7
2023-09-14T08:02:22.667Z,15.8
2023-09-14T08:22:26.700Z,16.3
2023-09-14T08:42:30.329Z,16.4
2023-09-14T08:52:32.490Z,16.6
2023-09-14T09:02:35.019Z,16.6
2023-09-14T09:12:36.732Z,16.8
2023-09-14T09:22:39.081Z,16.9
2023-09-14T09:32:41.530Z,16.9
2023-09-14T09:42:43.578Z,17.2
2023-09-14T09:52:45.689Z,17.1
2023-09-14T10:02:48.051Z,17.2
2023-09-14T10:12:49.646Z,17.3
2023-09-14T10:22:51.763Z,17.6
2023-09-14T10:32:54.150Z,17.7
2023-09-14T10:42:56.744Z,18
2023-09-14T10:52:58.889Z,17.9
2023-09-14T11:13:03.955Z,18
2023-09-14T11:23:05.661Z,18.1
2023-09-14T11:33:10.018Z,18.4
2023-09-14T11:43:15.232Z,18.5
2023-09-14T11:53:11.925Z,18.5
2023-09-14T12:03:13.766Z,18.7
2023-09-14T12:13:15.728Z,18.6
2023-09-14T12:23:17.620Z,18.8
2023-09-14T12:33:19.374Z,18.9
2023-09-14T12:43:21.485Z,18.7
2023-09-14T12:53:23.273Z,18.8
2023-09-14T13:03:25.944Z,19.1
2023-09-14T13:13:28.416Z,19.2
2023-09-14T13:23:30.135Z,19.5
2023-09-14T13:33:32.702Z,19.7
2023-09-14T13:43:34.357Z,19.7
2023-09-14T14:03:39.398Z,19.3
2023-09-14T14:13:41.548Z,19.1
2023-09-14T14:33:45.476Z,19.6
2023-09-14T15:03:52.543Z,19.7
2023-09-14T15:13:55.081Z,19.6
2023-09-14T15:33:59.205Z,19.5
2023-09-14T15:44:01.277Z,19.5
2023-09-14T16:04:05.600Z,19.4
2023-09-14T17:34:22.857Z,17.3
2023-09-14T17:44:25.257Z,16.8
2023-09-14T18:04:30.233Z,16.2
2023-09-14T18:44:38.071Z,15.3
2023-09-14T18:54:40.238Z,15.6
2023-09-14T19:04:41.987Z,15.5
2023-09-14T19:14:43.978Z,14.9
2023-09-14T19:24:45.909Z,14.5
2023-09-14T22:05:20.048Z,12.4
2023-09-14T22:25:24.123Z,12.1
2023-09-14T22:35:26.170Z,11.9
